Flight Track Log - Related Links

Times and Time Zones

All times are in EDT time to prevent confusion due to time zone crossing. See the MMY1 flight status page for this flight to view local times or setup timezone preferences in your user account.

Time Position Orientation Groundspeed Altitude Reporting Facility
EDT Latitude Longitude Course Direction KTS MPH feet Rate Location/Type
Sat 02:06:42 PM 37.7333 -121.8333 346° North 133 153 3,300  Level Northern Cal TRACON
Sat 02:07:42 PM 37.7667 -121.8000 38° Northeast 150 173 4,600 1,350 Climbing Northern Cal TRACON
Sat 02:08:42 PM 37.8000 -121.7667 38° Northeast 143 165 6,000 1,350 Climbing Northern Cal TRACON
Sat 02:09:42 PM 37.8333 -121.7333 38° Northeast 156 180 7,300 1,150 Climbing Northern Cal TRACON
Sat 02:10:42 PM 37.8833 -121.7167 15° North 163 188 8,300 1,125 Climbing Northern Cal TRACON
Sat 02:11:18 PM 37.9044 -121.7183 356° North 165 190 9,100 1,237 Climbing Oakland Center
Sat 02:12:19 PM 37.9500 -121.7047 13° North 169 194 10,300 1,220 Climbing Oakland Center
Sat 02:13:21 PM 37.9942 -121.6900 15° North 165 190 11,600 1,268 Climbing Oakland Center
Sat 02:14:22 PM 38.0358 -121.6753 16° North 157 181 12,900 1,122 Climbing Oakland Center
Sat 02:15:24 PM 38.0789 -121.6625 13° North 160 184 13,900 1,024 Climbing Oakland Center
Sat 02:16:25 PM 38.1250 -121.6536 North 166 191 15,000 927 Climbing Oakland Center
Sat 02:17:27 PM 38.1711 -121.6386 14° North 172 198 15,800 488 Climbing Oakland Center
Sat 02:18:28 PM 38.2322 -121.6175 15° North 190 219 16,000  Climbing Oakland Center
Sat 02:18:43 PM 38.2500 -121.6167 North 197 227 15,800 -80 Descending Northern Cal TRACON
Sat 02:19:43 PM 38.3000 -121.6000 15° North 199 229 15,900  Climbing Northern Cal TRACON
Sat 02:20:43 PM 38.3500 -121.5833 15° North 196 226 15,800  Descending Northern Cal TRACON
Sat 02:21:43 PM 38.4000 -121.5667 15° North 188 216 15,900  Climbing Northern Cal TRACON
Sat 02:22:43 PM 38.4500 -121.5500 15° North 187 215 15,800  Descending Northern Cal TRACON
Sat 02:23:43 PM 38.5000 -121.5667 345° North 189 217 15,900  Climbing Northern Cal TRACON
Sat 02:24:43 PM 38.5667 -121.5833 349° North 191 220 15,800  Descending Northern Cal TRACON
Sat 02:25:43 PM 38.6167 -121.6000 345° North 193 222 15,900 50 Climbing Northern Cal TRACON
Sat 02:26:44 PM 38.6667 -121.6167 345° North 193 222 15,900 34 Level Northern Cal TRACON
Sat 02:28:42 PM 38.7592 -121.6494 345° North 189 217 16,000 33 Climbing Oakland Center
Sat 02:29:44 PM 38.8103 -121.6711 342° North 192 221 16,000  Level Oakland Center
Sat 02:30:45 PM 38.8597 -121.6939 340° North 189 217 16,000  Level Oakland Center
Sat 02:31:46 PM 38.9103 -121.7147 342° North 189 217 16,000  Level Oakland Center
Sat 02:32:48 PM 38.9625 -121.7239 352° North 189 217 16,000  Level Oakland Center
Sat 02:33:49 PM 39.0142 -121.7389 347° North 189 217 16,000  Level Oakland Center
Sat 02:34:51 PM 39.0653 -121.7514 349° North 188 216 16,000  Level Oakland Center
Sat 02:35:52 PM 39.1164 -121.7639 349° North 187 215 16,000  Level Oakland Center
Sat 02:36:54 PM 39.1681 -121.7800 346° North 189 217 16,000  Level Oakland Center
Sat 02:37:55 PM 39.2203 -121.7939 348° North 190 219 16,000  Level Oakland Center
Sat 02:38:56 PM 39.2786 -121.8214 340° North 185 213 16,000  Level Oakland Center
Sat 02:39:58 PM 39.3303 -121.8364 347° North 189 217 16,000 -49 Level Oakland Center
Sat 02:40:59 PM 39.3789 -121.8617 338° Northwest 187 215 15,900 -49 Descending Oakland Center
Sat 02:42:01 PM 39.4281 -121.8864 339° North 188 216 15,900  Level Oakland Center
Sat 02:43:02 PM 39.4761 -121.9133 337° Northwest 187 215 15,900 -443 Level Oakland Center
Sat 02:44:03 PM 39.5300 -121.9433 337° Northwest 201 231 15,000 -829 Descending Oakland Center
Sat 02:45:05 PM 39.5822 -121.9653 342° North 199 229 14,200 -780 Descending Oakland Center
Sat 02:46:06 PM 39.6331 -121.9897 340° North 197 227 13,400 -732 Descending Oakland Center
Sat 02:47:08 PM 39.6844 -122.0128 341° North 195 224 12,700 -732 Descending Oakland Center
Sat 02:48:09 PM 39.7331 -122.0386 338° Northwest 190 219 11,900 -836 Descending Oakland Center
Sat 02:49:10 PM 39.7936 -122.0689 339° North 193 222 11,000 -976 Descending Oakland Center
Sat 02:50:12 PM 39.8442 -122.0989 336° Northwest 198 228 9,900 -1,073 Descending Oakland Center
Sat 02:51:13 PM 39.8969 -122.1289 336° Northwest 206 237 8,800 -934 Descending Oakland Center
Sat 02:52:14 PM 39.9478 -122.1569 337° Northwest 198 228 8,000 -934 Descending Oakland Center
Sat 02:53:15 PM 39.9972 -122.1836 338° Northwest 193 222 6,900 -1,024 Descending Oakland Center
Sat 02:54:17 PM 40.0481 -122.2103 338° Northwest 196 226 5,900 -976 Descending Oakland Center
Sat 02:55:18 PM 40.0978 -122.2328 341° North 194 223 4,900 -934 Descending Oakland Center
Sat 02:56:19 PM 40.1556 -122.2569 342° North 190 219 4,000 -732 Descending Oakland Center
Sat 02:57:21 PM 40.2011 -122.2719 346° North 183 211 3,400 -488 Descending Oakland Center
Sat 02:58:22 PM 40.2417 -122.2806 351° North 166 191 3,000 -148 Descending Oakland Center
Sat 02:59:23 PM 40.2778 -122.2897 349° North 148 170 3,100 -148 Climbing Oakland Center
Sat 03:00:24 PM 40.3167 -122.2942 355° North 145 167 2,700 -146 Descending Oakland Center
Sat 03:01:26 PM 40.3550 -122.2925 North 143 165 2,800 -49 Climbing Oakland Center
Sat 03:02:27 PM 40.3956 -122.2942 358° North 143 165 2,600 -541 Descending Oakland Center
Sat 03:03:28 PM 40.4358 -122.2950 359° North 144 166 1,700 -780 Descending Oakland Center
Sat 03:04:30 PM 40.4769 -122.2950 360° North 134 154 1,000 -439 Descending Oakland Center
Sat 03:05:31 PM 40.5053 -122.2942 North 128 147 800 -197 Descending Oakland Center

Login

Don't have an account? Register now (free) for customized features, flight alerts, and more!